sensor_id;sensor_type;location;lat;lon;timestamp;P1;durP1;ratioP1;P2;durP2;ratioP2
15843;SDS011;50807;52.436;13.346;2024-02-28T00:00:13;10.47;;;9.47;;
15843;SDS011;50807;52.436;13.346;2024-02-28T00:00:45;10.55;;;9.55;;
15843;SDS011;50807;52.436;13.346;2024-02-28T00:01:17;10.65;;;9.63;;
15843;SDS011;50807;52.436;13.346;2024-02-28T00:01:48;11.03;;;10.03;;
15843;SDS011;50807;52.436;13.346;2024-02-28T00:02:19;10.25;;;9.25;;
15843;SDS011;50807;52.436;13.346;2024-02-28T00:02:50;11.30;;;10.20;;
15843;SDS011;50807;52.436;13.346;2024-02-28T00:03:21;10.40;;;9.50;;
15843;SDS011;50807;52.436;13.346;2024-02-28T00:03:53;11.40;;;10.30;;
15843;SDS011;50807;52.436;13.346;2024-02-28T00:04:24;10.90;;;9.90;;
15843;SDS011;50807;52.436;13.346;2024-02-28T00:04:56;11.27;;;10.17;;
15843;SDS011;50807;52.436;13.346;2024-02-28T00:05:29;11.40;;;10.30;;
15843;SDS011;50807;52.436;13.346;2024-02-28T00:06:00;11.25;;;10.13;;
15843;SDS011;50807;52.436;13.346;2024-02-28T00:06:31;10.97;;;9.83;;
15843;SDS011;50807;52.436;13.346;2024-02-28T00:07:02;10.73;;;9.50;;
15843;SDS011;50807;52.436;13.346;2024-02-28T00:07:33;10.88;;;9.80;;
15843;SDS011;50807;52.436;13.346;2024-02-28T00:08:04;11.57;;;10.38;;
15843;SDS011;50807;52.436;13.346;2024-02-28T00:08:35;11.27;;;10.10;;
15843;SDS011;50807;52.436;13.346;2024-02-28T00:09:06;11.50;;;10.33;;
15843;SDS011;50807;52.436;13.346;2024-02-28T00:09:38;11.45;;;10.32;;
15843;SDS011;50807;52.436;13.346;2024-02-28T00:10:08;10.63;;;9.60;;
15843;SDS011;50807;52.436;13.346;2024-02-28T00:10:39;10.73;;;9.67;;
15843;SDS011;50807;52.436;13.346;2024-02-28T00:11:10;11.23;;;10.17;;
15843;SDS011;50807;52.436;13.346;2024-02-28T00:11:42;10.35;;;9.35;;
15843;SDS011;50807;52.436;13.346;2024-02-28T00:12:14;11.02;;;9.93;;
15843;SDS011;50807;52.436;13.346;2024-02-28T00:12:45;10.63;;;9.73;;
15843;SDS011;50807;52.436;13.346;2024-02-28T00:13:16;10.57;;;9.57;;
15843;SDS011;50807;52.436;13.346;2024-02-28T00:13:47;11.18;;;10.07;;
15843;SDS011;50807;52.436;13.346;2024-02-28T00:14:18;10.70;;;9.70;;
15843;SDS011;50807;52.436;13.346;2024-02-28T00:14:49;11.20;;;10.10;;
15843;SDS011;50807;52.436;13.346;2024-02-28T00:15:19;10.37;;;9.37;;
15843;SDS011;50807;52.436;13.346;2024-02-28T00:15:51;10.60;;;9.57;;
15843;SDS011;50807;52.436;13.346;2024-02-28T00:16:22;10.60;;;9.60;;
15843;SDS011;50807;52.436;13.346;2024-02-28T00:16:53;11.57;;;10.47;;
15843;SDS011;50807;52.436;13.346;2024-02-28T00:17:23;11.67;;;10.40;;
15843;SDS011;50807;52.436;13.346;2024-02-28T00:17:55;12.80;;;11.50;;
15843;SDS011;50807;52.436;13.346;2024-02-28T00:18:26;12.20;;;11.00;;
15843;SDS011;50807;52.436;13.346;2024-02-28T00:18:57;11.67;;;10.67;;
15843;SDS011;50807;52.436;13.346;2024-02-28T00:19:27;11.47;;;10.37;;
15843;SDS011;50807;52.436;13.346;2024-02-28T00:20:00;11.18;;;10.18;;
15843;SDS011;50807;52.436;13.346;2024-02-28T00:20:31;10.98;;;9.98;;
15843;SDS011;50807;52.436;13.346;2024-02-28T00:21:02;11.17;;;10.17;;
15843;SDS011;50807;52.436;13.346;2024-02-28T00:21:33;11.93;;;10.73;;
15843;SDS011;50807;52.436;13.346;2024-02-28T00:22:05;11.05;;;9.95;;
15843;SDS011;50807;52.436;13.346;2024-02-28T00:22:36;11.73;;;10.63;;
15843;SDS011;50807;52.436;13.346;2024-02-28T00:23:07;11.20;;;10.17;;
15843;SDS011;50807;52.436;13.346;2024-02-28T00:23:37;10.20;;;9.30;;
15843;SDS011;50807;52.436;13.346;2024-02-28T00:24:09;11.80;;;10.70;;
15843;SDS011;50807;52.436;13.346;2024-02-28T00:24:40;10.77;;;9.67;;
15843;SDS011;50807;52.436;13.346;2024-02-28T00:25:11;8.60;;;7.67;;
15843;SDS011;50807;52.436;13.346;2024-02-28T00:25:43;10.35;;;9.35;;
15843;SDS011;50807;52.436;13.346;2024-02-28T00:26:15;10.98;;;9.70;;
15843;SDS011;50807;52.436;13.346;2024-02-28T00:26:46;9.90;;;9.00;;
15843;SDS011;50807;52.436;13.346;2024-02-28T00:27:16;10.53;;;9.53;;
15843;SDS011;50807;52.436;13.346;2024-02-28T00:27:47;9.87;;;8.97;;
15843;SDS011;50807;52.436;13.346;2024-02-28T00:28:19;10.27;;;9.27;;
15843;SDS011;50807;52.436;13.346;2024-02-28T00:28:50;10.13;;;9.03;;
15843;SDS011;50807;52.436;13.346;2024-02-28T00:29:20;10.80;;;9.70;;
15843;SDS011;50807;52.436;13.346;2024-02-28T00:29:52;9.77;;;8.77;;
15843;SDS011;50807;52.436;13.346;2024-02-28T00:30:23;10.43;;;9.30;;
15843;SDS011;50807;52.436;13.346;2024-02-28T00:30:53;10.50;;;9.50;;
15843;SDS011;50807;52.436;13.346;2024-02-28T00:31:24;10.50;;;9.50;;
15843;SDS011;50807;52.436;13.346;2024-02-28T00:31:56;11.05;;;9.95;;
15843;SDS011;50807;52.436;13.346;2024-02-28T00:32:27;10.48;;;9.48;;
15843;SDS011;50807;52.436;13.346;2024-02-28T00:32:59;10.43;;;9.43;;
15843;SDS011;50807;52.436;13.346;2024-02-28T00:33:29;10.82;;;9.73;;
15843;SDS011;50807;52.436;13.346;2024-02-28T00:34:00;10.83;;;9.83;;
15843;SDS011;50807;52.436;13.346;2024-02-28T00:34:32;10.27;;;9.27;;
15843;SDS011;50807;52.436;13.346;2024-02-28T00:35:04;10.10;;;9.20;;
15843;SDS011;50807;52.436;13.346;2024-02-28T00:35:36;10.05;;;9.05;;
15843;SDS011;50807;52.436;13.346;2024-02-28T00:36:06;9.57;;;8.70;;
15843;SDS011;50807;52.436;13.346;2024-02-28T00:36:38;10.25;;;9.27;;
15843;SDS011;50807;52.436;13.346;2024-02-28T00:37:09;10.43;;;9.43;;
15843;SDS011;50807;52.436;13.346;2024-02-28T00:37:40;10.17;;;9.17;;
15843;SDS011;50807;52.436;13.346;2024-02-28T00:38:10;10.43;;;9.43;;
15843;SDS011;50807;52.436;13.346;2024-02-28T00:38:41;10.97;;;9.90;;
15843;SDS011;50807;52.436;13.346;2024-02-28T00:39:13;10.82;;;9.82;;
15843;SDS011;50807;52.436;13.346;2024-02-28T00:39:44;11.63;;;10.53;;
15843;SDS011;50807;52.436;13.346;2024-02-28T00:40:15;11.85;;;10.65;;
15843;SDS011;50807;52.436;13.346;2024-02-28T00:40:46;11.33;;;10.23;;
15843;SDS011;50807;52.436;13.346;2024-02-28T00:41:18;11.50;;;10.30;;
15843;SDS011;50807;52.436;13.346;2024-02-28T00:41:48;11.77;;;10.57;;
15843;SDS011;50807;52.436;13.346;2024-02-28T00:42:19;11.10;;;9.90;;
15843;SDS011;50807;52.436;13.346;2024-02-28T00:42:50;11.33;;;10.23;;
15843;SDS011;50807;52.436;13.346;2024-02-28T00:43:22;11.32;;;10.18;;
15843;SDS011;50807;52.436;13.346;2024-02-28T00:43:52;10.93;;;9.90;;
15843;SDS011;50807;52.436;13.346;2024-02-28T00:44:23;10.70;;;9.60;;
15843;SDS011;50807;52.436;13.346;2024-02-28T00:44:54;10.77;;;9.67;;
15843;SDS011;50807;52.436;13.346;2024-02-28T00:45:25;11.93;;;10.70;;
15843;SDS011;50807;52.436;13.346;2024-02-28T00:45:56;11.43;;;10.33;;
15843;SDS011;50807;52.436;13.346;2024-02-28T00:46:28;11.57;;;10.48;;
15843;SDS011;50807;52.436;13.346;2024-02-28T00:46:59;11.03;;;10.00;;
15843;SDS011;50807;52.436;13.346;2024-02-28T00:47:29;11.77;;;10.57;;
15843;SDS011;50807;52.436;13.346;2024-02-28T00:48:02;12.07;;;10.88;;
15843;SDS011;50807;52.436;13.346;2024-02-28T00:48:33;11.60;;;10.40;;
15843;SDS011;50807;52.436;13.346;2024-02-28T00:49:03;11.13;;;10.07;;
15843;SDS011;50807;52.436;13.346;2024-02-28T00:49:34;11.90;;;10.73;;
15843;SDS011;50807;52.436;13.346;2024-02-28T00:50:08;11.65;;;10.50;;
15843;SDS011;50807;52.436;13.346;2024-02-28T00:50:39;11.57;;;10.43;;
15843;SDS011;50807;52.436;13.346;2024-02-28T00:51:10;11.93;;;10.70;;
15843;SDS011;50807;52.436;13.346;2024-02-28T00:51:41;12.90;;;11.60;;
15843;SDS011;50807;52.436;13.346;2024-02-28T00:52:12;11.95;;;10.75;;
15843;SDS011;50807;52.436;13.346;2024-02-28T00:52:43;11.98;;;10.77;;
15843;SDS011;50807;52.436;13.346;2024-02-28T00:53:14;12.23;;;10.93;;
15843;SDS011;50807;52.436;13.346;2024-02-28T00:53:45;11.83;;;10.70;;
15843;SDS011;50807;52.436;13.346;2024-02-28T00:54:17;12.75;;;11.55;;
15843;SDS011;50807;52.436;13.346;2024-02-28T00:54:47;12.23;;;10.87;;
15843;SDS011;50807;52.436;13.346;2024-02-28T00:55:18;11.40;;;10.20;;
15843;SDS011;50807;52.436;13.346;2024-02-28T00:55:49;12.07;;;10.87;;
15843;SDS011;50807;52.436;13.346;2024-02-28T00:56:21;11.73;;;10.52;;
15843;SDS011;50807;52.436;13.346;2024-02-28T00:56:52;12.60;;;11.30;;
15843;SDS011;50807;52.436;13.346;2024-02-28T00:57:23;10.90;;;9.80;;
15843;SDS011;50807;52.436;13.346;2024-02-28T00:57:54;12.17;;;10.87;;
15843;SDS011;50807;52.436;13.346;2024-02-28T00:58:25;12.30;;;11.02;;
15843;SDS011;50807;52.436;13.346;2024-02-28T00:58:57;11.63;;;10.45;;
15843;SDS011;50807;52.436;13.346;2024-02-28T00:59:28;12.23;;;10.93;;
15843;SDS011;50807;52.436;13.346;2024-02-28T00:59:59;11.73;;;10.53;;
15843;SDS011;50807;52.436;13.346;2024-02-28T01:00:31;11.10;;;10.10;;
15843;SDS011;50807;52.436;13.346;2024-02-28T01:01:01;11.93;;;10.90;;
15843;SDS011;50807;52.436;13.346;2024-02-28T01:01:33;11.60;;;10.45;;
15843;SDS011;50807;52.436;13.346;2024-02-28T01:02:03;11.63;;;10.43;;
15843;SDS011;50807;52.436;13.346;2024-02-28T01:02:35;11.90;;;10.70;;
15843;SDS011;50807;52.436;13.346;2024-02-28T01:03:06;12.03;;;10.70;;
15843;SDS011;50807;52.436;13.346;2024-02-28T01:03:39;11.95;;;10.75;;
15843;SDS011;50807;52.436;13.346;2024-02-28T01:04:09;11.40;;;10.33;;
15843;SDS011;50807;52.436;13.346;2024-02-28T01:04:41;12.88;;;11.32;;
15843;SDS011;50807;52.436;13.346;2024-02-28T01:05:13;11.97;;;10.70;;
15843;SDS011;50807;52.436;13.346;2024-02-28T01:05:44;12.45;;;11.13;;
15843;SDS011;50807;52.436;13.346;2024-02-28T01:06:15;11.73;;;10.68;;
15843;SDS011;50807;52.436;13.346;2024-02-28T01:06:47;11.68;;;10.50;;
15843;SDS011;50807;52.436;13.346;2024-02-28T01:07:18;11.10;;;9.97;;
15843;SDS011;50807;52.436;13.346;2024-02-28T01:07:48;12.13;;;10.93;;
15843;SDS011;50807;52.436;13.346;2024-02-28T01:08:19;12.27;;;11.07;;
15843;SDS011;50807;52.436;13.346;2024-02-28T01:08:51;12.45;;;11.15;;
15843;SDS011;50807;52.436;13.346;2024-02-28T01:09:21;12.47;;;11.17;;
15843;SDS011;50807;52.436;13.346;2024-02-28T01:09:52;11.73;;;10.63;;
15843;SDS011;50807;52.436;13.346;2024-02-28T01:10:23;11.43;;;10.32;;
15843;SDS011;50807;52.436;13.346;2024-02-28T01:10:54;11.73;;;10.53;;
15843;SDS011;50807;52.436;13.346;2024-02-28T01:11:26;12.27;;;10.98;;
15843;SDS011;50807;52.436;13.346;2024-02-28T01:11:56;11.23;;;10.13;;
15843;SDS011;50807;52.436;13.346;2024-02-28T01:12:27;11.50;;;10.30;;
15843;SDS011;50807;52.436;13.346;2024-02-28T01:12:58;12.20;;;10.93;;
15843;SDS011;50807;52.436;13.346;2024-02-28T01:13:30;12.05;;;10.85;;
15843;SDS011;50807;52.436;13.346;2024-02-28T01:14:00;12.07;;;10.87;;
15843;SDS011;50807;52.436;13.346;2024-02-28T01:14:31;11.70;;;10.60;;
15843;SDS011;50807;52.436;13.346;2024-02-28T01:15:02;11.97;;;10.77;;
15843;SDS011;50807;52.436;13.346;2024-02-28T01:15:34;11.85;;;10.65;;
15843;SDS011;50807;52.436;13.346;2024-02-28T01:16:05;13.00;;;11.63;;
15843;SDS011;50807;52.436;13.346;2024-02-28T01:16:36;11.23;;;10.10;;
15843;SDS011;50807;52.436;13.346;2024-02-28T01:17:07;11.82;;;10.73;;
15843;SDS011;50807;52.436;13.346;2024-02-28T01:17:39;11.55;;;10.45;;
15843;SDS011;50807;52.436;13.346;2024-02-28T01:18:10;11.60;;;10.50;;
15843;SDS011;50807;52.436;13.346;2024-02-28T01:18:40;9.87;;;8.87;;
15843;SDS011;50807;52.436;13.346;2024-02-28T01:19:11;11.63;;;10.53;;
15843;SDS011;50807;52.436;13.346;2024-02-28T01:19:43;12.73;;;11.43;;
15843;SDS011;50807;52.436;13.346;2024-02-28T01:20:15;12.87;;;11.50;;
15843;SDS011;50807;52.436;13.346;2024-02-28T01:20:46;12.45;;;10.85;;
15843;SDS011;50807;52.436;13.346;2024-02-28T01:21:17;11.50;;;10.40;;
15843;SDS011;50807;52.436;13.346;2024-02-28T01:21:49;11.82;;;10.73;;
15843;SDS011;50807;52.436;13.346;2024-02-28T01:22:20;12.57;;;11.27;;
15843;SDS011;50807;52.436;13.346;2024-02-28T01:22:51;12.10;;;11.02;;
15843;SDS011;50807;52.436;13.346;2024-02-28T01:23:22;12.88;;;11.57;;
15843;SDS011;50807;52.436;13.346;2024-02-28T01:23:53;12.23;;;11.07;;
15843;SDS011;50807;52.436;13.346;2024-02-28T01:24:24;12.60;;;11.37;;
15843;SDS011;50807;52.436;13.346;2024-02-28T01:24:55;12.43;;;11.13;;
15843;SDS011;50807;52.436;13.346;2024-02-28T01:25:26;12.07;;;10.82;;
15843;SDS011;50807;52.436;13.346;2024-02-28T01:25:57;12.53;;;11.23;;
15843;SDS011;50807;52.436;13.346;2024-02-28T01:26:28;12.90;;;11.50;;
15843;SDS011;50807;52.436;13.346;2024-02-28T01:26:58;11.70;;;10.53;;
15843;SDS011;50807;52.436;13.346;2024-02-28T01:27:29;13.00;;;11.70;;
15843;SDS011;50807;52.436;13.346;2024-02-28T01:28:01;12.02;;;10.80;;
15843;SDS011;50807;52.436;13.346;2024-02-28T01:28:34;11.60;;;10.60;;
15843;SDS011;50807;52.436;13.346;2024-02-28T01:29:05;12.60;;;11.30;;
15843;SDS011;50807;52.436;13.346;2024-02-28T01:29:36;12.40;;;11.10;;
15843;SDS011;50807;52.436;13.346;2024-02-28T01:30:07;13.00;;;11.70;;
15843;SDS011;50807;52.436;13.346;2024-02-28T01:30:39;13.30;;;12.00;;
15843;SDS011;50807;52.436;13.346;2024-02-28T01:31:09;12.33;;;11.03;;
15843;SDS011;50807;52.436;13.346;2024-02-28T01:31:40;11.67;;;10.60;;
15843;SDS011;50807;52.436;13.346;2024-02-28T01:32:12;12.07;;;10.88;;
15843;SDS011;50807;52.436;13.346;2024-02-28T01:32:42;12.47;;;10.80;;
15843;SDS011;50807;52.436;13.346;2024-02-28T01:33:13;11.97;;;10.53;;
15843;SDS011;50807;52.436;13.346;2024-02-28T01:33:44;11.07;;;10.07;;
15843;SDS011;50807;52.436;13.346;2024-02-28T01:34:14;12.40;;;11.20;;
15843;SDS011;50807;52.436;13.346;2024-02-28T01:34:46;12.15;;;10.88;;
15843;SDS011;50807;52.436;13.346;2024-02-28T01:35:18;12.40;;;11.20;;
15843;SDS011;50807;52.436;13.346;2024-02-28T01:35:49;12.45;;;11.13;;
15843;SDS011;50807;52.436;13.346;2024-02-28T01:36:19;11.90;;;10.70;;
15843;SDS011;50807;52.436;13.346;2024-02-28T01:36:51;11.82;;;10.73;;
15843;SDS011;50807;52.436;13.346;2024-02-28T01:37:22;12.03;;;10.93;;
15843;SDS011;50807;52.436;13.346;2024-02-28T01:37:53;12.13;;;10.93;;
15843;SDS011;50807;52.436;13.346;2024-02-28T01:38:24;12.07;;;10.87;;
15843;SDS011;50807;52.436;13.346;2024-02-28T01:38:56;11.75;;;10.63;;
15843;SDS011;50807;52.436;13.346;2024-02-28T01:39:27;11.73;;;10.53;;
15843;SDS011;50807;52.436;13.346;2024-02-28T01:39:58;11.07;;;9.97;;
15843;SDS011;50807;52.436;13.346;2024-02-28T01:40:29;12.33;;;11.13;;
15843;SDS011;50807;52.436;13.346;2024-02-28T01:41:00;12.40;;;11.10;;
15843;SDS011;50807;52.436;13.346;2024-02-28T01:41:31;11.60;;;10.40;;
15843;SDS011;50807;52.436;13.346;2024-02-28T01:42:02;12.47;;;11.17;;
15843;SDS011;50807;52.436;13.346;2024-02-28T01:42:33;12.25;;;11.05;;
15843;SDS011;50807;52.436;13.346;2024-02-28T01:43:06;12.02;;;10.82;;
15843;SDS011;50807;52.436;13.346;2024-02-28T01:43:37;12.05;;;10.90;;
15843;SDS011;50807;52.436;13.346;2024-02-28T01:44:08;12.40;;;11.10;;
15843;SDS011;50807;52.436;13.346;2024-02-28T01:44:40;11.90;;;10.68;;
15843;SDS011;50807;52.436;13.346;2024-02-28T01:45:15;12.20;;;11.00;;
15843;SDS011;50807;52.436;13.346;2024-02-28T01:45:46;11.87;;;10.70;;
15843;SDS011;50807;52.436;13.346;2024-02-28T01:46:20;12.67;;;11.37;;
15843;SDS011;50807;52.436;13.346;2024-02-28T01:46:56;11.95;;;10.75;;
15843;SDS011;50807;52.436;13.346;2024-02-28T01:47:28;11.98;;;10.77;;
15843;SDS011;50807;52.436;13.346;2024-02-28T01:48:00;12.27;;;11.07;;
15843;SDS011;50807;52.436;13.346;2024-02-28T01:48:35;12.40;;;11.25;;
15843;SDS011;50807;52.436;13.346;2024-02-28T01:49:05;13.00;;;11.70;;
15843;SDS011;50807;52.436;13.346;2024-02-28T01:49:37;12.70;;;11.40;;
15843;SDS011;50807;52.436;13.346;2024-02-28T01:50:09;12.18;;;10.85;;
15843;SDS011;50807;52.436;13.346;2024-02-28T01:50:43;12.05;;;10.85;;
15843;SDS011;50807;52.436;13.346;2024-02-28T01:51:14;12.48;;;10.85;;
15843;SDS011;50807;52.436;13.346;2024-02-28T01:51:46;12.55;;;11.35;;
15843;SDS011;50807;52.436;13.346;2024-02-28T01:52:18;12.15;;;10.90;;
15843;SDS011;50807;52.436;13.346;2024-02-28T01:52:49;11.85;;;10.75;;
15843;SDS011;50807;52.436;13.346;2024-02-28T01:53:20;12.10;;;10.85;;
15843;SDS011;50807;52.436;13.346;2024-02-28T01:53:52;12.10;;;10.90;;
15843;SDS011;50807;52.436;13.346;2024-02-28T01:54:24;12.32;;;11.13;;
15843;SDS011;50807;52.436;13.346;2024-02-28T01:54:58;12.05;;;10.85;;
15843;SDS011;50807;52.436;13.346;2024-02-28T01:55:29;12.98;;;11.68;;
15843;SDS011;50807;52.436;13.346;2024-02-28T01:56:01;12.05;;;10.85;;
15843;SDS011;50807;52.436;13.346;2024-02-28T01:56:32;12.32;;;11.13;;
15843;SDS011;50807;52.436;13.346;2024-02-28T01:57:04;12.85;;;11.55;;
15843;SDS011;50807;52.436;13.346;2024-02-28T01:57:36;12.65;;;11.45;;
15843;SDS011;50807;52.436;13.346;2024-02-28T01:58:09;11.73;;;10.52;;
15843;SDS011;50807;52.436;13.346;2024-02-28T01:58:41;11.93;;;10.80;;
15843;SDS011;50807;52.436;13.346;2024-02-28T01:59:13;11.70;;;10.50;;
15843;SDS011;50807;52.436;13.346;2024-02-28T01:59:47;13.00;;;11.70;;
15843;SDS011;50807;52.436;13.346;2024-02-28T02:00:19;12.45;;;11.15;;
15843;SDS011;50807;52.436;13.346;2024-02-28T02:00:53;12.50;;;11.30;;
15843;SDS011;50807;52.436;13.346;2024-02-28T02:01:25;12.63;;;11.33;;
15843;SDS011;50807;52.436;13.346;2024-02-28T02:01:56;12.48;;;11.20;;
15843;SDS011;50807;52.436;13.346;2024-02-28T02:02:28;12.70;;;11.40;;
15843;SDS011;50807;52.436;13.346;2024-02-28T02:02:59;12.33;;;11.03;;
15843;SDS011;50807;52.436;13.346;2024-02-28T02:03:31;12.52;;;11.23;;
15843;SDS011;50807;52.436;13.346;2024-02-28T02:04:04;11.95;;;10.73;;
15843;SDS011;50807;52.436;13.346;2024-02-28T02:04:37;12.70;;;11.40;;
15843;SDS011;50807;52.436;13.346;2024-02-28T02:05:08;13.57;;;12.17;;
15843;SDS011;50807;52.436;13.346;2024-02-28T02:05:42;12.82;;;11.52;;
15843;SDS011;50807;52.436;13.346;2024-02-28T02:06:13;12.73;;;11.43;;
15843;SDS011;50807;52.436;13.346;2024-02-28T02:06:44;12.55;;;11.35;;
15843;SDS011;50807;52.436;13.346;2024-02-28T02:07:17;13.07;;;11.80;;
15843;SDS011;50807;52.436;13.346;2024-02-28T02:07:48;12.70;;;11.50;;
15843;SDS011;50807;52.436;13.346;2024-02-28T02:08:19;13.20;;;11.88;;
15843;SDS011;50807;52.436;13.346;2024-02-28T02:08:51;12.35;;;11.15;;
15843;SDS011;50807;52.436;13.346;2024-02-28T02:09:21;13.27;;;11.93;;
15843;SDS011;50807;52.436;13.346;2024-02-28T02:09:52;12.90;;;11.70;;
15843;SDS011;50807;52.436;13.346;2024-02-28T02:10:23;12.95;;;11.65;;
15843;SDS011;50807;52.436;13.346;2024-02-28T02:10:56;13.07;;;11.85;;
15843;SDS011;50807;52.436;13.346;2024-02-28T02:11:27;13.77;;;12.40;;
15843;SDS011;50807;52.436;13.346;2024-02-28T02:11:58;12.60;;;11.30;;
15843;SDS011;50807;52.436;13.346;2024-02-28T02:12:29;13.70;;;12.27;;
15843;SDS011;50807;52.436;13.346;2024-02-28T02:13:06;12.80;;;11.50;;
15843;SDS011;50807;52.436;13.346;2024-02-28T02:13:46;14.18;;;12.77;;
15843;SDS011;50807;52.436;13.346;2024-02-28T02:14:19;12.77;;;11.43;;
15843;SDS011;50807;52.436;13.346;2024-02-28T02:14:49;13.47;;;12.07;;
15843;SDS011;50807;52.436;13.346;2024-02-28T02:15:21;14.48;;;12.98;;
15843;SDS011;50807;52.436;13.346;2024-02-28T02:15:52;13.67;;;12.27;;
15843;SDS011;50807;52.436;13.346;2024-02-28T02:16:23;13.80;;;12.40;;
15843;SDS011;50807;52.436;13.346;2024-02-28T02:16:56;15.25;;;13.65;;
15843;SDS011;50807;52.436;13.346;2024-02-28T02:17:27;10.50;;;9.40;;
15843;SDS011;50807;52.436;13.346;2024-02-28T02:17:58;12.67;;;11.37;;
15843;SDS011;50807;52.436;13.346;2024-02-28T02:18:29;13.93;;;12.53;;
15843;SDS011;50807;52.436;13.346;2024-02-28T02:19:00;14.20;;;12.70;;
15843;SDS011;50807;52.436;13.346;2024-02-28T02:19:31;13.63;;;12.30;;
15843;SDS011;50807;52.436;13.346;2024-02-28T02:20:02;13.70;;;12.37;;
15843;SDS011;50807;52.436;13.346;2024-02-28T02:20:36;13.52;;;12.23;;
15843;SDS011;50807;52.436;13.346;2024-02-28T02:21:15;13.80;;;12.40;;
15843;SDS011;50807;52.436;13.346;2024-02-28T02:21:52;13.43;;;12.02;;
15843;SDS011;50807;52.436;13.346;2024-02-28T02:22:27;12.55;;;11.27;;
15843;SDS011;50807;52.436;13.346;2024-02-28T02:23:04;12.55;;;11.25;;
15843;SDS011;50807;52.436;13.346;2024-02-28T02:23:36;12.30;;;11.10;;
15843;SDS011;50807;52.436;13.346;2024-02-28T02:24:11;12.75;;;11.48;;
15843;SDS011;50807;52.436;13.346;2024-02-28T02:24:41;12.87;;;11.63;;
15843;SDS011;50807;52.436;13.346;2024-02-28T02:25:12;13.17;;;11.77;;
15843;SDS011;50807;52.436;13.346;2024-02-28T02:25:43;12.53;;;11.33;;
15843;SDS011;50807;52.436;13.346;2024-02-28T02:26:16;11.30;;;10.20;;
15843;SDS011;50807;52.436;13.346;2024-02-28T02:26:46;12.13;;;11.00;;
15843;SDS011;50807;52.436;13.346;2024-02-28T02:27:17;12.13;;;10.87;;
15843;SDS011;50807;52.436;13.346;2024-02-28T02:27:48;11.97;;;10.77;;
15843;SDS011;50807;52.436;13.346;2024-02-28T02:28:20;11.25;;;10.15;;
15843;SDS011;50807;52.436;13.346;2024-02-28T02:28:50;12.43;;;11.17;;
15843;SDS011;50807;52.436;13.346;2024-02-28T02:29:21;12.33;;;11.13;;
15843;SDS011;50807;52.436;13.346;2024-02-28T02:29:52;11.87;;;10.67;;
15843;SDS011;50807;52.436;13.346;2024-02-28T02:30:24;11.35;;;10.15;;
15843;SDS011;50807;52.436;13.346;2024-02-28T02:30:54;12.07;;;10.87;;
15843;SDS011;50807;52.436;13.346;2024-02-28T02:31:25;11.97;;;10.77;;
15843;SDS011;50807;52.436;13.346;2024-02-28T02:31:56;11.60;;;10.50;;
15843;SDS011;50807;52.436;13.346;2024-02-28T02:32:27;12.25;;;11.05;;
15843;SDS011;50807;52.436;13.346;2024-02-28T02:32:58;11.43;;;10.23;;
15843;SDS011;50807;52.436;13.346;2024-02-28T02:33:29;11.43;;;10.30;;
15843;SDS011;50807;52.436;13.346;2024-02-28T02:34:00;12.43;;;11.23;;
15843;SDS011;50807;52.436;13.346;2024-02-28T02:34:31;12.32;;;11.05;;
15843;SDS011;50807;52.436;13.346;2024-02-28T02:35:02;12.20;;;11.00;;
15843;SDS011;50807;52.436;13.346;2024-02-28T02:35:34;11.88;;;10.68;;
15843;SDS011;50807;52.436;13.346;2024-02-28T02:36:05;12.60;;;11.30;;
15843;SDS011;50807;52.436;13.346;2024-02-28T02:36:37;11.90;;;10.70;;
15843;SDS011;50807;52.436;13.346;2024-02-28T02:37:08;11.60;;;10.50;;
15843;SDS011;50807;52.436;13.346;2024-02-28T02:37:44;11.33;;;10.13;;
15843;SDS011;50807;52.436;13.346;2024-02-28T02:38:15;10.80;;;9.80;;
15843;SDS011;50807;52.436;13.346;2024-02-28T02:38:47;11.43;;;10.23;;
15843;SDS011;50807;52.436;13.346;2024-02-28T02:39:18;11.20;;;10.10;;
15843;SDS011;50807;52.436;13.346;2024-02-28T02:39:48;9.93;;;9.00;;
15843;SDS011;50807;52.436;13.346;2024-02-28T02:40:19;11.33;;;10.23;;
15843;SDS011;50807;52.436;13.346;2024-02-28T02:40:51;10.30;;;9.27;;
15843;SDS011;50807;52.436;13.346;2024-02-28T02:41:22;10.85;;;9.75;;
15843;SDS011;50807;52.436;13.346;2024-02-28T02:41:53;10.37;;;9.33;;
15843;SDS011;50807;52.436;13.346;2024-02-28T02:42:24;9.70;;;8.80;;
15843;SDS011;50807;52.436;13.346;2024-02-28T02:42:55;10.02;;;9.02;;
15843;SDS011;50807;52.436;13.346;2024-02-28T02:43:26;9.90;;;9.00;;
15843;SDS011;50807;52.436;13.346;2024-02-28T02:43:57;9.70;;;8.80;;
15843;SDS011;50807;52.436;13.346;2024-02-28T02:44:28;10.60;;;9.60;;
15843;SDS011;50807;52.436;13.346;2024-02-28T02:44:59;10.52;;;9.52;;
15843;SDS011;50807;52.436;13.346;2024-02-28T02:45:30;10.57;;;9.53;;
15843;SDS011;50807;52.436;13.346;2024-02-28T02:46:01;9.83;;;8.87;;
15843;SDS011;50807;52.436;13.346;2024-02-28T02:46:32;10.07;;;9.07;;
15843;SDS011;50807;52.436;13.346;2024-02-28T02:47:03;9.88;;;8.98;;
15843;SDS011;50807;52.436;13.346;2024-02-28T02:47:34;9.43;;;8.53;;
15843;SDS011;50807;52.436;13.346;2024-02-28T02:48:06;9.48;;;8.68;;
15843;SDS011;50807;52.436;13.346;2024-02-28T02:48:37;9.48;;;8.57;;
15843;SDS011;50807;52.436;13.346;2024-02-28T02:49:09;9.68;;;8.73;;
15843;SDS011;50807;52.436;13.346;2024-02-28T02:49:39;9.63;;;8.73;;
15843;SDS011;50807;52.436;13.346;2024-02-28T02:50:10;9.33;;;8.43;;
15843;SDS011;50807;52.436;13.346;2024-02-28T02:50:41;6.97;;;6.33;;
15843;SDS011;50807;52.436;13.346;2024-02-28T02:51:13;9.52;;;8.73;;
15843;SDS011;50807;52.436;13.346;2024-02-28T02:51:43;9.23;;;8.33;;
15843;SDS011;50807;52.436;13.346;2024-02-28T02:52:14;10.38;;;9.40;;
15843;SDS011;50807;52.436;13.346;2024-02-28T02:52:46;8.60;;;7.80;;
15843;SDS011;50807;52.436;13.346;2024-02-28T02:53:18;8.95;;;8.15;;
15843;SDS011;50807;52.436;13.346;2024-02-28T02:53:49;9.05;;;8.18;;
15843;SDS011;50807;52.436;13.346;2024-02-28T02:54:20;9.93;;;8.93;;
15843;SDS011;50807;52.436;13.346;2024-02-28T02:54:51;9.30;;;8.40;;
15843;SDS011;50807;52.436;13.346;2024-02-28T02:55:22;9.65;;;8.75;;
15843;SDS011;50807;52.436;13.346;2024-02-28T02:55:53;9.23;;;8.33;;
15843;SDS011;50807;52.436;13.346;2024-02-28T02:56:24;9.03;;;8.20;;
15843;SDS011;50807;52.436;13.346;2024-02-28T02:56:55;9.47;;;8.57;;
15843;SDS011;50807;52.436;13.346;2024-02-28T02:57:25;9.40;;;8.50;;
15843;SDS011;50807;52.436;13.346;2024-02-28T02:57:57;9.32;;;8.43;;
15843;SDS011;50807;52.436;13.346;2024-02-28T02:58:28;8.90;;;8.00;;
15843;SDS011;50807;52.436;13.346;2024-02-28T02:58:58;9.50;;;8.60;;
15843;SDS011;50807;52.436;13.346;2024-02-28T02:59:29;9.13;;;8.33;;
15843;SDS011;50807;52.436;13.346;2024-02-28T03:00:01;8.88;;;7.97;;
15843;SDS011;50807;52.436;13.346;2024-02-28T03:00:32;8.00;;;7.20;;
15843;SDS011;50807;52.436;13.346;2024-02-28T03:01:03;8.70;;;7.90;;
15843;SDS011;50807;52.436;13.346;2024-02-28T03:01:34;8.10;;;7.30;;
15843;SDS011;50807;52.436;13.346;2024-02-28T03:02:05;8.20;;;7.40;;